Time;durP1;ratioP1;P1;durP2;ratioP2;P2;SDS_P1;SDS_P2;PMS_P1;PMS_P2;Temp;Humidity;BMP_temperature;BMP_pressure;BME280_temperature;BME280_humidity;BME280_pressure;Samples;Min_cycle;Max_cycle;Signal;HPM_P1;HPM_P2
2021/06/18 00:00:11;;;;;;;13.48;6.65;;;;;;;23.51;48.25;100800.53;5047746;28;20397;-82
2021/06/18 00:02:40;;;;;;;11.00;7.30;;;;;;;23.37;48.69;100798.53;5067475;28;20048;-82
2021/06/18 00:05:09;;;;;;;9.93;7.40;;;;;;;23.37;48.45;100795.84;5062195;28;20066;-80
2021/06/18 00:07:37;;;;;;;10.40;7.25;;;;;;;23.32;48.73;100795.50;5071521;28;20044;-80
2021/06/18 00:10:07;;;;;;;9.45;7.13;;;;;;;23.24;49.12;100794.53;5070321;28;20106;-81
2021/06/18 00:12:36;;;;;;;8.93;7.25;;;;;;;23.14;48.97;100791.16;5097999;28;20123;-84
2021/06/18 00:15:06;;;;;;;17.58;7.43;;;;;;;22.97;49.73;100786.81;5048685;28;20045;-82
2021/06/18 00:17:36;;;;;;;9.48;7.50;;;;;;;22.81;50.58;100786.75;5052935;28;20044;-81
2021/06/18 00:20:06;;;;;;;8.73;6.95;;;;;;;22.80;50.28;100801.19;5064994;28;20403;-82
2021/06/18 00:22:38;;;;;;;9.68;7.68;;;;;;;22.93;50.08;100785.47;5073098;28;20052;-81
2021/06/18 00:25:07;;;;;;;9.40;6.93;;;;;;;22.90;50.10;100788.47;5053705;28;20473;-83
2021/06/18 00:27:35;;;;;;;7.82;7.03;;;;;;;22.75;50.80;100789.09;5060563;28;20048;-83
2021/06/18 00:30:04;;;;;;;8.95;7.40;;;;;;;22.68;50.96;100787.22;5083128;28;20349;-84
2021/06/18 00:32:32;;;;;;;10.38;7.28;;;;;;;22.65;51.07;100777.69;5060527;28;20111;-81
2021/06/18 00:34:59;;;;;;;8.93;7.45;;;;;;;22.68;50.95;100776.50;5046092;28;20033;-81
2021/06/18 00:37:27;;;;;;;13.15;7.70;;;;;;;22.79;50.88;100778.03;5031158;28;20044;-84
2021/06/18 00:39:55;;;;;;;10.82;7.22;;;;;;;22.84;50.72;100771.16;5080488;28;20131;-83
2021/06/18 00:42:24;;;;;;;11.45;7.82;;;;;;;22.79;50.55;100767.28;5063380;28;20036;-82
2021/06/18 00:44:52;;;;;;;8.57;7.78;;;;;;;22.70;51.03;100780.69;5041783;28;20094;-83
2021/06/18 00:47:22;;;;;;;11.48;7.05;;;;;;;22.60;50.87;100771.09;5047537;28;20043;-81
2021/06/18 00:49:52;;;;;;;11.65;7.28;;;;;;;22.63;51.25;100768.09;5064925;28;20028;-83
2021/06/18 00:52:21;;;;;;;7.85;7.00;;;;;;;22.47;51.85;100769.75;5074988;28;20393;-81
2021/06/18 00:54:49;;;;;;;9.00;7.60;;;;;;;22.55;51.79;100768.06;5042626;28;20488;-81
2021/06/18 00:57:17;;;;;;;9.93;8.02;;;;;;;22.55;51.74;100773.44;5067524;28;20083;-83
2021/06/18 00:59:45;;;;;;;12.20;7.65;;;;;;;22.51;51.84;100770.25;5063636;28;20056;-81
2021/06/18 01:02:12;;;;;;;11.75;7.50;;;;;;;22.42;52.00;100771.22;5065090;28;20110;-81
2021/06/18 01:04:41;;;;;;;9.45;7.85;;;;;;;22.39;52.00;100766.22;5067785;28;20040;-83
2021/06/18 01:07:21;;;;;;;9.55;8.55;;;;;;;22.32;52.67;100765.19;5082248;28;20040;-80
2021/06/18 01:10:08;;;;;;;9.80;8.27;;;;;;;22.09;53.13;100765.72;5048495;28;20055;-83
2021/06/18 01:12:42;;;;;;;10.25;7.82;;;;;;;22.00;53.43;100762.19;5050417;28;20044;-82
2021/06/18 01:15:15;;;;;;;9.88;7.75;;;;;;;22.20;52.86;100765.50;5078733;28;20037;-82
2021/06/18 01:18:00;;;;;;;10.02;7.90;;;;;;;22.09;53.16;100768.41;5047266;28;20132;-82
2021/06/18 01:20:45;;;;;;;10.30;8.57;;;;;;;22.19;53.15;100762.94;5038320;28;20044;-82
2021/06/18 01:23:28;;;;;;;14.18;8.85;;;;;;;22.22;53.12;100766.16;5086433;28;20024;-83
2021/06/18 01:26:16;;;;;;;12.73;8.18;;;;;;;22.31;52.60;100763.50;5078817;28;20055;-82
2021/06/18 01:28:48;;;;;;;12.43;8.82;;;;;;;22.24;52.96;100758.81;5083801;28;20033;-82
2021/06/18 01:31:19;;;;;;;8.98;8.05;;;;;;;22.29;52.57;100763.69;5082175;28;20361;-82
2021/06/18 01:33:51;;;;;;;9.75;7.85;;;;;;;22.28;52.75;100763.81;5078471;28;20047;-82
2021/06/18 01:36:19;;;;;;;9.25;8.25;;;;;;;22.13;53.20;100761.75;5060005;28;20036;-82
2021/06/18 01:38:51;;;;;;;9.10;7.15;;;;;;;22.01;53.66;100763.00;5091541;28;20546;-82
2021/06/18 01:41:24;;;;;;;10.70;7.97;;;;;;;22.00;53.79;100764.03;5039721;28;20060;-82
2021/06/18 01:43:53;;;;;;;13.75;8.75;;;;;;;21.87;54.07;100763.63;5072898;28;20196;-84
2021/06/18 01:46:28;;;;;;;10.68;8.70;;;;;;;21.81;54.43;100766.97;5034758;28;20613;-81
2021/06/18 01:49:08;;;;;;;14.88;8.43;;;;;;;21.83;54.58;100764.94;5062386;28;20062;-82
2021/06/18 01:51:37;;;;;;;10.05;8.15;;;;;;;21.81;55.04;100766.97;5075608;28;20040;-80
2021/06/18 01:54:05;;;;;;;12.50;8.80;;;;;;;21.62;55.52;100754.63;5046578;28;20055;-82
2021/06/18 01:56:38;;;;;;;9.07;8.18;;;;;;;21.46;56.08;100766.06;5047810;28;20342;-82
2021/06/18 01:59:06;;;;;;;10.93;9.50;;;;;;;21.34;56.29;100760.13;5067557;28;20227;-83
2021/06/18 02:01:37;;;;;;;10.73;9.10;;;;;;;21.46;56.29;100764.25;5054932;28;20433;-81
2021/06/18 02:04:06;;;;;;;9.32;8.43;;;;;;;21.36;56.82;100763.50;5054972;28;20508;-81
2021/06/18 02:06:35;;;;;;;10.70;8.52;;;;;;;21.29;56.83;100764.25;5044525;28;20036;-81
2021/06/18 02:09:05;;;;;;;11.57;9.10;;;;;;;21.27;57.04;100753.72;5072904;28;20052;-81
2021/06/18 02:11:36;;;;;;;10.07;8.23;;;;;;;21.15;57.69;100753.09;5045211;28;20056;-83
2021/06/18 02:14:08;;;;;;;11.10;9.20;;;;;;;21.04;58.11;100758.72;5043760;28;20041;-83
2021/06/18 02:16:39;;;;;;;11.55;8.88;;;;;;;21.04;57.96;100750.69;5053700;28;20020;-82
2021/06/18 02:19:07;;;;;;;10.70;8.85;;;;;;;21.20;57.58;100755.31;5036211;28;20052;-82
2021/06/18 02:21:35;;;;;;;13.52;8.73;;;;;;;21.21;57.58;100749.81;5064568;28;20142;-83
2021/06/18 02:24:03;;;;;;;11.98;8.50;;;;;;;21.24;57.74;100756.69;5064291;28;20488;-81
2021/06/18 02:26:31;;;;;;;17.08;9.23;;;;;;;21.22;57.79;100756.84;5046435;28;20053;-83
2021/06/18 02:29:07;;;;;;;13.38;8.95;;;;;;;21.22;58.04;100750.66;5064934;28;20040;-83
2021/06/18 02:31:38;;;;;;;12.95;8.95;;;;;;;21.16;58.21;100754.81;5059135;28;20044;-82
2021/06/18 02:34:07;;;;;;;10.90;9.18;;;;;;;21.06;58.19;100756.72;5080045;28;20036;-83
2021/06/18 02:36:38;;;;;;;10.23;9.13;;;;;;;21.07;58.57;100752.19;5050165;28;20044;-83
2021/06/18 02:39:06;;;;;;;14.52;9.35;;;;;;;20.95;59.02;100756.97;5068694;28;20043;-82
2021/06/18 02:41:34;;;;;;;12.65;8.52;;;;;;;20.87;59.46;100762.25;5032959;28;20037;-84
2021/06/18 02:44:03;;;;;;;13.93;9.20;;;;;;;21.01;58.95;100764.38;5056095;28;20060;-83
2021/06/18 02:46:36;;;;;;;9.82;8.82;;;;;;;21.06;59.07;100769.25;5065196;28;20386;-82
2021/06/18 02:49:09;;;;;;;11.32;8.52;;;;;;;20.99;59.19;100777.09;5030523;28;20413;-82
2021/06/18 02:51:46;;;;;;;16.67;9.47;;;;;;;20.94;59.50;100771.34;5059785;28;20083;-82
2021/06/18 02:54:31;;;;;;;11.90;9.70;;;;;;;20.78;60.07;100769.34;5057408;28;20033;-84
2021/06/18 02:57:05;;;;;;;12.93;10.10;;;;;;;20.66;60.88;100773.25;5041982;28;20040;-82
2021/06/18 02:59:42;;;;;;;11.38;10.02;;;;;;;20.48;61.32;100775.91;5086776;28;20052;-84
2021/06/18 03:02:14;;;;;;;11.70;8.85;;;;;;;20.46;61.60;100769.84;5043152;28;20032;-82
2021/06/18 03:04:44;;;;;;;10.32;8.45;;;;;;;20.47;61.35;100766.16;5066652;28;20138;-81
2021/06/18 03:07:15;;;;;;;13.93;9.23;;;;;;;20.61;61.05;100771.03;5078660;28;20062;-81
2021/06/18 03:09:54;;;;;;;10.35;9.30;;;;;;;20.59;61.27;100770.34;5038080;28;20051;-81
2021/06/18 03:12:24;;;;;;;14.68;9.68;;;;;;;20.62;61.08;100772.69;5055014;28;20037;-81
2021/06/18 03:14:56;;;;;;;10.35;9.23;;;;;;;20.63;61.66;100770.91;5053832;28;20044;-81
2021/06/18 03:17:26;;;;;;;20.73;12.73;;;;;;;20.62;61.79;100774.53;5070218;28;20044;-81
2021/06/18 03:19:59;;;;;;;9.95;8.85;;;;;;;20.61;61.66;100779.06;5059476;28;20058;-81
2021/06/18 03:22:27;;;;;;;20.98;9.18;;;;;;;20.73;61.13;100782.34;5047890;28;20097;-82
2021/06/18 03:24:55;;;;;;;11.82;8.98;;;;;;;20.85;60.80;100785.63;5039337;28;20042;-84
2021/06/18 03:27:23;;;;;;;13.77;9.10;;;;;;;20.90;60.80;100780.69;5063647;28;20067;-82
2021/06/18 03:29:52;;;;;;;10.00;9.02;;;;;;;21.02;60.18;100782.09;5052258;28;20059;-82
2021/06/18 03:32:19;;;;;;;11.18;8.73;;;;;;;20.98;60.96;100784.28;5052812;28;20031;-82
2021/06/18 03:34:48;;;;;;;12.30;10.38;;;;;;;21.07;60.10;100790.50;5047117;28;20036;-82
2021/06/18 03:37:16;;;;;;;15.35;11.15;;;;;;;21.18;59.75;100784.09;5045716;28;20078;-82
2021/06/18 03:39:45;;;;;;;14.18;11.25;;;;;;;21.35;59.05;100793.13;5085001;28;20064;-82
2021/06/18 03:42:13;;;;;;;15.13;10.15;;;;;;;21.34;59.32;100786.91;5051672;28;20051;-81
2021/06/18 03:44:40;;;;;;;15.23;10.00;;;;;;;21.44;58.94;100789.50;5060212;28;20074;-84
2021/06/18 03:47:09;;;;;;;14.05;11.43;;;;;;;21.46;58.83;100787.50;5048196;28;20040;-82
2021/06/18 03:49:37;;;;;;;16.70;10.15;;;;;;;21.51;58.88;100797.75;5073825;28;20395;-82
2021/06/18 03:52:04;;;;;;;19.88;9.77;;;;;;;21.53;58.88;100782.38;5051073;28;20176;-83
2021/06/18 03:54:33;;;;;;;17.00;8.90;;;;;;;21.67;58.56;100784.47;5083974;28;20412;-80
2021/06/18 03:57:01;;;;;;;13.90;9.75;;;;;;;21.70;58.09;100781.44;5046071;28;20113;-79
2021/06/18 03:59:31;;;;;;;14.82;9.07;;;;;;;21.73;58.31;100781.97;5053966;28;20024;-84
2021/06/18 04:01:59;;;;;;;13.80;10.13;;;;;;;21.81;58.10;100791.06;5091507;28;20050;-81
2021/06/18 04:04:31;;;;;;;11.82;9.38;;;;;;;21.89;57.80;100794.66;5068549;28;20062;-82
2021/06/18 04:06:59;;;;;;;10.50;9.40;;;;;;;21.99;57.39;100797.19;5048328;28;20040;-84
2021/06/18 04:09:26;;;;;;;12.88;9.13;;;;;;;22.10;57.07;100796.91;5079128;28;20071;-84
2021/06/18 04:11:55;;;;;;;11.68;10.10;;;;;;;22.15;57.07;100797.28;5058711;28;20028;-82
2021/06/18 04:14:27;;;;;;;11.90;9.43;;;;;;;22.17;56.81;100795.31;5059722;28;20128;-83
2021/06/18 04:16:55;;;;;;;12.50;9.27;;;;;;;22.31;56.55;100791.16;5081224;28;20054;-82
2021/06/18 04:19:23;;;;;;;11.88;8.52;;;;;;;22.37;56.65;100784.28;5084846;28;20054;-83
2021/06/18 04:21:51;;;;;;;10.38;8.82;;;;;;;22.65;55.62;100784.84;5064064;28;20044;-80
2021/06/18 04:24:19;;;;;;;11.90;8.45;;;;;;;23.14;54.64;100793.00;5053554;28;20055;-83
2021/06/18 04:26:46;;;;;;;13.25;8.98;;;;;;;24.16;51.65;100786.94;5060848;28;20063;-83
2021/06/18 04:29:13;;;;;;;11.93;8.68;;;;;;;25.31;48.53;100789.75;5082293;28;20036;-82
2021/06/18 04:31:41;;;;;;;11.52;8.90;;;;;;;26.62;45.06;100786.41;5050391;28;20377;-81
2021/06/18 04:34:08;;;;;;;13.80;8.23;;;;;;;28.10;41.46;100788.22;5066967;28;20058;-82
2021/06/18 04:36:37;;;;;;;12.68;7.70;;;;;;;29.18;38.99;100786.44;5046736;28;20040;-81
2021/06/18 04:39:05;;;;;;;11.10;7.93;;;;;;;29.97;38.05;100790.09;5050298;28;20040;-80
2021/06/18 04:41:33;;;;;;;11.50;8.10;;;;;;;30.80;35.39;100783.88;5065127;28;20051;-80
2021/06/18 04:44:01;;;;;;;10.18;8.40;;;;;;;31.13;35.44;100795.34;5070586;28;20070;-81
2021/06/18 04:46:29;;;;;;;12.40;8.50;;;;;;;31.91;33.18;100789.41;5064623;28;20048;-82
2021/06/18 04:48:58;;;;;;;12.27;8.38;;;;;;;32.13;32.86;100787.06;5070943;28;20028;-81
2021/06/18 04:51:26;;;;;;;11.77;8.25;;;;;;;32.71;31.92;100786.50;5033076;28;20058;-82
2021/06/18 04:53:54;;;;;;;10.95;8.63;;;;;;;32.45;32.65;100792.34;5051087;28;20101;-84
2021/06/18 04:56:22;;;;;;;11.85;7.75;;;;;;;32.97;31.27;100789.94;5050286;28;20036;-80
2021/06/18 04:58:49;;;;;;;12.15;7.80;;;;;;;33.66;30.32;100795.69;5084227;28;20049;-84
2021/06/18 05:01:17;;;;;;;10.48;7.55;;;;;;;34.26;29.52;100790.69;5045339;28;20048;-82
2021/06/18 05:03:44;;;;;;;8.23;7.43;;;;;;;34.81;28.63;100793.94;5068396;28;20067;-82
2021/06/18 05:06:12;;;;;;;8.95;7.90;;;;;;;35.33;27.83;100797.28;5064291;28;20037;-82
2021/06/18 05:08:39;;;;;;;10.88;7.97;;;;;;;34.60;28.77;100792.75;5090153;28;20047;-81
2021/06/18 05:11:07;;;;;;;10.15;7.78;;;;;;;35.64;27.29;100797.78;5087663;28;20056;-83
2021/06/18 05:13:35;;;;;;;13.10;7.65;;;;;;;35.35;27.48;100797.03;5083451;28;20147;-83
2021/06/18 05:16:02;;;;;;;10.63;7.95;;;;;;;36.35;26.14;100795.16;5067135;28;20391;-81
2021/06/18 05:18:32;;;;;;;9.13;7.65;;;;;;;36.82;25.78;100791.81;5072889;28;20040;-82
2021/06/18 05:20:59;;;;;;;12.00;8.30;;;;;;;36.21;26.74;100800.22;5057522;28;20139;-83
2021/06/18 05:23:27;;;;;;;10.48;7.90;;;;;;;37.20;25.14;100799.03;5092324;28;20105;-84
2021/06/18 05:25:54;;;;;;;10.15;7.65;;;;;;;37.68;24.33;100805.38;5059709;28;20064;-83
2021/06/18 05:28:22;;;;;;;9.95;7.95;;;;;;;37.70;24.18;100809.53;5040595;28;20041;-84
2021/06/18 05:30:50;;;;;;;8.60;7.35;;;;;;;37.18;25.42;100810.25;5070003;28;20043;-83
2021/06/18 05:33:18;;;;;;;8.65;7.63;;;;;;;37.46;25.00;100809.09;5053057;28;20416;-83
2021/06/18 05:35:46;;;;;;;10.90;7.82;;;;;;;37.44;24.55;100813.22;5082617;28;20056;-86
2021/06/18 05:38:13;;;;;;;11.40;7.55;;;;;;;38.34;23.78;100821.41;5042776;28;20047;-83
2021/06/18 05:40:44;;;;;;;12.02;7.97;;;;;;;38.73;22.94;100822.59;5088096;28;20052;-85
2021/06/18 05:43:11;;;;;;;10.32;7.38;;;;;;;39.19;22.74;100816.31;5087233;28;20107;-82
2021/06/18 05:45:39;;;;;;;10.20;8.27;;;;;;;39.71;22.13;100824.25;5045207;28;20484;-84
2021/06/18 05:48:07;;;;;;;14.00;8.32;;;;;;;39.22;22.03;100822.13;5053628;28;20054;-82
2021/06/18 05:50:35;;;;;;;14.90;7.78;;;;;;;39.99;21.05;100827.50;5054089;28;20044;-84
2021/06/18 05:53:03;;;;;;;10.38;7.57;;;;;;;39.49;21.77;100823.72;5071738;28;20043;-81
2021/06/18 05:55:31;;;;;;;12.45;7.65;;;;;;;38.63;22.52;100822.56;5055721;28;20050;-83
2021/06/18 05:57:58;;;;;;;10.45;7.55;;;;;;;39.65;21.73;100822.63;5067760;28;20075;-84
2021/06/18 06:00:26;;;;;;;10.45;6.55;;;;;;;40.13;21.15;100820.28;5054422;28;20048;-81
2021/06/18 06:03:09;;;;;;;11.95;6.75;;;;;;;40.96;20.29;100826.97;5083436;28;20053;-82
2021/06/18 06:05:37;;;;;;;10.43;6.45;;;;;;;40.81;20.26;100819.63;5068551;28;20047;-82
2021/06/18 06:08:12;;;;;;;11.13;6.82;;;;;;;40.92;20.16;100820.34;5049103;28;20085;-84
2021/06/18 06:10:47;;;;;;;9.93;6.57;;;;;;;41.79;19.00;100814.03;5080706;28;20048;-83
2021/06/18 06:13:16;;;;;;;13.25;7.65;;;;;;;41.77;18.77;100813.50;5054098;28;20059;-82
2021/06/18 06:15:46;;;;;;;8.63;6.70;;;;;;;41.04;19.17;100822.78;5059934;28;20127;-82
2021/06/18 06:18:14;;;;;;;10.70;6.75;;;;;;;40.67;19.35;100827.72;5077760;28;20048;-82
2021/06/18 06:20:42;;;;;;;9.48;5.70;;;;;;;40.08;20.08;100820.28;5080132;28;20045;-84
2021/06/18 06:23:10;;;;;;;9.32;6.25;;;;;;;39.81;20.34;100815.16;5051657;28;20234;-82
2021/06/18 06:25:39;;;;;;;10.15;6.20;;;;;;;40.73;19.72;100818.28;5040899;28;20036;-84
2021/06/18 06:28:07;;;;;;;9.07;6.65;;;;;;;41.32;18.71;100810.09;5069734;28;20305;-82
2021/06/18 06:30:35;;;;;;;7.90;6.03;;;;;;;40.40;19.05;100811.59;5052801;28;20040;-84
2021/06/18 06:33:04;;;;;;;11.48;6.38;;;;;;;40.90;19.09;100819.84;5084729;28;20453;-83
2021/06/18 06:35:34;;;;;;;6.25;5.75;;;;;;;41.18;18.64;100815.47;5069928;28;20102;-83
2021/06/18 06:38:02;;;;;;;13.50;6.43;;;;;;;41.61;18.28;100810.94;5052400;28;20055;-84
2021/06/18 06:40:31;;;;;;;8.40;5.72;;;;;;;41.33;17.81;100806.22;5072635;28;20053;-82
2021/06/18 06:42:59;;;;;;;9.35;5.78;;;;;;;41.27;18.18;100808.19;5041159;28;20105;-83
2021/06/18 06:45:27;;;;;;;9.02;5.50;;;;;;;40.74;18.50;100822.69;5069131;28;20033;-81
2021/06/18 06:47:54;;;;;;;7.53;5.43;;;;;;;41.44;18.10;100821.63;5052379;28;20221;-83
2021/06/18 06:50:22;;;;;;;9.60;6.40;;;;;;;41.44;17.72;100818.84;5081547;28;20048;-83
2021/06/18 06:52:49;;;;;;;8.82;5.88;;;;;;;41.57;17.82;100820.91;5081555;28;20109;-83
2021/06/18 06:55:17;;;;;;;11.30;5.90;;;;;;;42.35;17.04;100816.13;5065765;28;20487;-82
2021/06/18 06:57:45;;;;;;;10.70;6.57;;;;;;;43.02;16.57;100821.47;5081411;28;20460;-82
2021/06/18 07:00:13;;;;;;;7.82;5.70;;;;;;;42.58;16.57;100819.94;5065901;28;20108;-83
2021/06/18 07:02:41;;;;;;;12.07;6.15;;;;;;;43.00;16.31;100821.78;5057411;28;20051;-83
2021/06/18 07:05:09;;;;;;;11.23;6.75;;;;;;;42.33;16.83;100818.34;5078087;28;20040;-81
2021/06/18 07:07:37;;;;;;;7.45;6.22;;;;;;;42.57;16.83;100810.00;5054238;28;20062;-82
2021/06/18 07:10:06;;;;;;;7.68;5.97;;;;;;;42.47;17.03;100811.78;5076353;28;20044;-83
2021/06/18 07:12:34;;;;;;;8.40;5.60;;;;;;;42.57;16.42;100821.06;5069467;28;20041;-83
2021/06/18 07:15:02;;;;;;;12.23;5.82;;;;;;;42.91;15.81;100809.75;5068239;28;20044;-83
2021/06/18 07:17:30;;;;;;;7.85;5.53;;;;;;;42.82;15.96;100812.38;5068158;28;20136;-81
2021/06/18 07:20:01;;;;;;;6.07;5.22;;;;;;;42.67;16.11;100804.31;5042639;28;20442;-82
2021/06/18 07:22:30;;;;;;;12.52;5.93;;;;;;;42.48;16.24;100799.59;5034074;28;20412;-82
2021/06/18 07:24:59;;;;;;;8.45;5.63;;;;;;;43.14;15.76;100800.53;5056580;28;20044;-81
2021/06/18 07:27:28;;;;;;;9.23;5.53;;;;;;;41.93;16.56;100796.47;5058999;28;20063;-83
2021/06/18 07:29:56;;;;;;;11.27;5.60;;;;;;;43.11;15.44;100790.03;5068467;28;20043;-84
2021/06/18 07:32:24;;;;;;;8.30;5.35;;;;;;;42.72;15.89;100795.94;5029154;28;20044;-83
2021/06/18 07:34:51;;;;;;;7.78;5.10;;;;;;;43.07;15.41;100794.53;5068756;28;20484;-82
2021/06/18 07:37:19;;;;;;;8.55;6.25;;;;;;;43.57;15.19;100800.28;5082318;28;20036;-80
2021/06/18 07:39:50;;;;;;;6.20;5.60;;;;;;;44.58;14.35;100802.00;5045399;28;20392;-81
2021/06/18 07:42:29;;;;;;;9.30;6.22;;;;;;;45.07;14.16;100794.72;5067605;28;20486;-83
2021/06/18 07:44:57;;;;;;;10.20;6.05;;;;;;;43.56;15.11;100786.75;5059560;28;20051;-81
2021/06/18 07:47:25;;;;;;;9.77;5.70;;;;;;;44.37;14.40;100801.69;5053012;28;20040;-82
2021/06/18 07:49:52;;;;;;;8.48;6.03;;;;;;;44.03;14.03;100785.47;5048793;28;20063;-83
2021/06/18 07:52:21;;;;;;;7.28;5.30;;;;;;;43.07;15.28;100791.78;5069189;28;20479;-82
2021/06/18 07:54:52;;;;;;;6.55;5.28;;;;;;;43.07;15.10;100785.41;5055841;28;20097;-82
2021/06/18 07:57:19;;;;;;;7.07;5.35;;;;;;;43.42;14.77;100781.97;5047351;28;20342;-82
2021/06/18 07:59:48;;;;;;;9.50;5.10;;;;;;;42.78;15.46;100785.59;5061768;28;20056;-80
2021/06/18 08:02:15;;;;;;;11.23;5.20;;;;;;;42.67;15.34;100782.19;5048242;28;20052;-82
2021/06/18 08:04:53;;;;;;;12.23;4.50;;;;;;;43.95;14.53;100775.13;5063479;28;20042;-81
2021/06/18 08:07:21;;;;;;;5.10;4.50;;;;;;;43.36;14.63;100774.88;5071118;28;20047;-82
2021/06/18 08:09:50;;;;;;;8.73;5.03;;;;;;;43.41;14.42;100779.50;5063972;28;20485;-82
2021/06/18 08:12:21;;;;;;;9.20;5.05;;;;;;;43.11;14.40;100770.66;5063676;28;20488;-82
2021/06/18 08:14:49;;;;;;;5.68;4.80;;;;;;;43.81;13.77;100763.19;5038303;28;20063;-82
2021/06/18 08:17:18;;;;;;;10.68;4.85;;;;;;;41.85;15.61;100774.19;5050875;28;20053;-82
2021/06/18 08:19:45;;;;;;;7.15;4.68;;;;;;;42.29;15.07;100768.34;5049863;28;20044;-83
2021/06/18 08:22:13;;;;;;;8.20;4.32;;;;;;;42.31;15.02;100770.81;5082164;28;20053;-81
2021/06/18 08:24:41;;;;;;;10.63;4.63;;;;;;;42.75;14.43;100780.69;5052067;28;20139;-82
2021/06/18 08:27:09;;;;;;;9.10;4.85;;;;;;;42.14;14.95;100766.56;5066241;28;20040;-81
2021/06/18 08:29:36;;;;;;;6.22;4.05;;;;;;;41.55;15.94;100769.81;5077706;28;20044;-82
2021/06/18 08:32:04;;;;;;;5.47;4.20;;;;;;;39.95;17.00;100763.00;5065846;28;20048;-82
2021/06/18 08:34:32;;;;;;;6.60;4.00;;;;;;;38.49;18.29;100755.44;5068775;28;20166;-83
2021/06/18 08:36:59;;;;;;;8.73;4.07;;;;;;;37.78;19.35;100763.41;5038801;28;20043;-81
2021/06/18 08:39:27;;;;;;;5.70;4.03;;;;;;;36.99;20.40;100754.94;5063048;28;20043;-84
2021/06/18 08:41:55;;;;;;;6.20;3.83;;;;;;;36.03;21.60;100762.13;5064860;28;20387;-83
2021/06/18 08:44:26;;;;;;;11.82;3.90;;;;;;;35.37;21.71;100759.31;5032532;28;20032;-86
2021/06/18 08:46:54;;;;;;;4.75;3.78;;;;;;;34.76;22.48;100749.03;5051194;28;20162;-80
2021/06/18 08:49:23;;;;;;;5.43;3.55;;;;;;;34.48;23.19;100747.16;5086049;28;20032;-82
2021/06/18 08:51:50;;;;;;;5.68;3.47;;;;;;;34.49;23.23;100756.19;5066484;28;20056;-81
2021/06/18 08:54:18;;;;;;;6.25;3.70;;;;;;;34.30;23.24;100746.50;5056315;28;20050;-83
2021/06/18 08:56:46;;;;;;;4.55;3.25;;;;;;;33.64;24.15;100751.41;5051247;28;20059;-81
2021/06/18 08:59:13;;;;;;;4.97;3.40;;;;;;;33.33;24.73;100731.59;5069374;28;20032;-81
2021/06/18 09:01:41;;;;;;;7.35;4.25;;;;;;;33.13;24.95;100747.47;5052844;28;20083;-84
2021/06/18 09:04:09;;;;;;;7.30;3.03;;;;;;;33.09;25.08;100736.22;5051420;28;20037;-82
2021/06/18 09:06:39;;;;;;;5.50;3.60;;;;;;;33.11;25.13;100736.00;5086595;28;20050;-82
2021/06/18 09:09:24;;;;;;;6.38;3.63;;;;;;;33.07;25.42;100732.91;5044730;28;20320;-81
2021/06/18 09:12:01;;;;;;;;;;;;;;;33.32;25.11;100738.09;5058302;28;20075;-82
2021/06/18 09:14:36;;;;;;;8.85;3.70;;;;;;;33.14;24.36;100725.41;5063210;28;19943;-84
2021/06/18 09:17:05;;;;;;;;;;;;;;;33.26;23.24;100728.97;5035962;28;20042;-82
2021/06/18 09:19:38;;;;;;;6.65;3.25;;;;;;;32.93;24.61;100734.19;5042325;28;19956;-83
2021/06/18 09:22:09;;;;;;;9.23;3.25;;;;;;;32.96;24.45;100729.13;5037565;28;20047;-82
2021/06/18 09:24:40;;;;;;;7.55;3.10;;;;;;;32.81;23.64;100730.59;5058354;28;20125;-81
2021/06/18 09:27:08;;;;;;;8.25;3.28;;;;;;;32.35;24.19;100738.38;5059534;28;20131;-82
2021/06/18 09:29:36;;;;;;;6.18;3.00;;;;;;;32.68;23.72;100735.16;5063616;28;20135;-82
2021/06/18 09:32:10;;;;;;;4.32;3.00;;;;;;;32.55;24.75;100732.66;5060205;28;20079;-82
2021/06/18 09:34:50;;;;;;;5.03;3.10;;;;;;;32.83;24.18;100723.84;5058548;28;20135;-81
2021/06/18 09:37:18;;;;;;;5.65;3.38;;;;;;;32.84;24.09;100733.69;5082773;28;20052;-83
2021/06/18 09:40:15;;;;;;;5.43;2.90;;;;;;;33.04;23.70;100729.81;5083207;28;20055;-83
2021/06/18 09:43:15;;;;;;;6.13;3.42;;;;;;;32.95;23.48;100721.97;5034567;28;20135;-81
2021/06/18 09:45:44;;;;;;;5.70;3.53;;;;;;;33.16;23.91;100731.47;5080232;28;20044;-86
2021/06/18 09:48:14;;;;;;;3.25;2.95;;;;;;;32.62;23.94;100717.03;5070940;28;20524;-82
2021/06/18 09:50:44;;;;;;;8.00;3.58;;;;;;;32.55;24.52;100726.38;5065301;28;20052;-83
2021/06/18 09:53:23;;;;;;;6.22;3.20;;;;;;;32.83;24.30;100721.13;5046123;28;20074;-82
2021/06/18 09:56:03;;;;;;;6.95;3.38;;;;;;;33.06;23.78;100720.34;5053380;28;20052;-83
2021/06/18 09:58:38;;;;;;;7.40;3.67;;;;;;;33.19;24.10;100720.09;5088679;28;20044;-81
2021/06/18 10:01:28;;;;;;;9.20;3.10;;;;;;;32.95;24.21;100716.50;5065069;28;20392;-82
2021/06/18 10:04:07;;;;;;;5.93;3.63;;;;;;;32.67;24.72;100708.16;5062868;28;20305;-81
2021/06/18 10:06:36;;;;;;;11.35;3.45;;;;;;;32.79;24.95;100717.19;5057242;28;20060;-79
2021/06/18 10:09:05;;;;;;;7.40;3.63;;;;;;;32.98;24.72;100704.31;5057563;28;20039;-82
2021/06/18 10:11:34;;;;;;;5.63;3.20;;;;;;;32.94;25.15;100703.13;5067273;28;20051;-85
2021/06/18 10:14:02;;;;;;;5.65;3.90;;;;;;;33.22;24.50;100703.25;5073197;28;20024;-82
2021/06/18 10:16:29;;;;;;;7.43;3.97;;;;;;;32.76;25.13;100702.13;5086748;28;20120;-81
2021/06/18 10:18:58;;;;;;;9.23;3.65;;;;;;;32.92;25.08;100703.38;5057991;28;20036;-79
2021/06/18 10:21:32;;;;;;;4.13;3.47;;;;;;;33.04;25.02;100697.09;5063746;28;20158;-81
2021/06/18 10:24:03;;;;;;;4.50;3.38;;;;;;;33.26;24.72;100693.50;5051790;28;20341;-81
2021/06/18 10:26:31;;;;;;;9.65;3.40;;;;;;;33.28;24.98;100687.84;5052364;28;20047;-83
2021/06/18 10:29:01;;;;;;;6.43;3.88;;;;;;;33.69;24.24;100686.00;5051069;28;20047;-81
2021/06/18 10:31:36;;;;;;;6.22;3.30;;;;;;;33.91;24.12;100694.34;5054151;28;20044;-81
2021/06/18 10:34:21;;;;;;;12.10;6.47;;;;;;;34.09;24.36;100691.47;5060378;28;20044;-83
2021/06/18 10:36:48;;;;;;;8.05;4.68;;;;;;;33.98;23.95;100689.59;5047617;28;20056;-82
2021/06/18 10:39:19;;;;;;;9.63;5.35;;;;;;;33.97;23.89;100696.97;5086124;28;20046;-83
2021/06/18 10:41:49;;;;;;;5.55;3.47;;;;;;;33.85;23.73;100703.53;5090943;28;20480;-82
2021/06/18 10:44:39;;;;;;;9.55;3.80;;;;;;;33.40;24.07;100691.34;5085650;28;20063;-81
2021/06/18 10:47:31;;;;;;;10.77;3.65;;;;;;;33.23;24.66;100694.00;5076952;28;20384;-82
2021/06/18 10:49:59;;;;;;;8.07;3.70;;;;;;;33.40;24.31;100679.63;5066009;28;20116;-80
2021/06/18 10:52:37;;;;;;;16.17;4.55;;;;;;;33.72;24.05;100688.22;5046920;28;20054;-83
2021/06/18 10:55:06;;;;;;;5.13;3.37;;;;;;;33.38;23.28;100682.59;5061655;28;20044;-79
2021/06/18 10:57:36;;;;;;;8.30;3.38;;;;;;;33.38;23.09;100671.69;5048425;28;20089;-81
2021/06/18 11:00:09;;;;;;;3.65;3.00;;;;;;;33.05;23.19;100672.28;5067042;28;20036;-82
2021/06/18 11:02:39;;;;;;;7.20;3.22;;;;;;;32.93;22.78;100674.19;5088334;28;20051;-80
2021/06/18 11:05:25;;;;;;;8.45;3.05;;;;;;;32.86;22.85;100674.28;5065666;28;20572;-81
2021/06/18 11:08:14;;;;;;;6.45;3.25;;;;;;;33.00;22.89;100664.81;5055922;28;20048;-82
2021/06/18 11:11:00;;;;;;;5.50;3.28;;;;;;;32.77;23.03;100660.16;5078654;28;20040;-82
2021/06/18 11:13:28;;;;;;;5.80;3.50;;;;;;;32.97;22.75;100667.22;5065005;28;20056;-81
2021/06/18 11:15:55;;;;;;;7.88;3.80;;;;;;;33.28;22.53;100660.56;5034877;28;20143;-81
2021/06/18 11:18:32;;;;;;;7.88;3.03;;;;;;;33.08;22.46;100663.63;5062853;28;20070;-85
2021/06/18 11:21:01;;;;;;;4.95;3.40;;;;;;;33.00;22.94;100664.00;5074904;28;20044;-82
2021/06/18 11:23:33;;;;;;;7.00;3.30;;;;;;;33.32;22.46;100672.63;5050985;28;20059;-81
2021/06/18 11:26:09;;;;;;;5.88;3.42;;;;;;;33.51;22.60;100666.00;5065496;28;20054;-81
2021/06/18 11:28:41;;;;;;;6.75;3.03;;;;;;;33.40;22.25;100660.50;5062849;28;20078;-81
2021/06/18 11:31:16;;;;;;;6.30;3.10;;;;;;;33.31;21.53;100668.22;5050757;28;20065;-81
2021/06/18 11:33:58;;;;;;;5.13;2.75;;;;;;;33.10;21.91;100658.78;5061278;28;20531;-82
2021/06/18 11:36:33;;;;;;;7.50;2.88;;;;;;;33.18;21.90;100660.31;5054147;28;20049;-82